ADDS METAR Data INFO
IDs: Format: Raw Decoded Include TAF

Data at: 2037 UTC 16 Dec 2017

KISP 161956Z 26010KT 10SM FEW045 OVC060 03/M04 A2998 RMK AO2 SLP153 T00281044
KISP 161856Z 26013G20KT 10SM FEW045 SCT065 BKN100 BKN250 03/M05 A2997 RMK AO2 SLP149 T00281050
KISP 161756Z 25012KT 10SM FEW046 SCT100 SCT250 02/M06 A2997 RMK AO2 PK WND 27026/1704 SLP152 4/001 T00171056 10022 21061 58028
KISP 161656Z 25015KT 10SM BKN046 BKN100 BKN250 02/M06 A3001 RMK AO2 SLP163 T00171061
KISP 161556Z 26016G20KT 10SM FEW040 SCT100 SCT250 01/M07 A3004 RMK AO2 SLP173 T00061067
KISP 161456Z 26012KT 10SM FEW040 SCT110 SCT250 M01/M07 A3006 RMK AO2 SLP180 T10061072 51024
KISP 161356Z 25013KT 10SM FEW040 SCT120 BKN250 M02/M08 A3004 RMK AO2 SLP175 T10221078
KISP 161256Z 25010KT 10SM FEW040 SCT250 M04/M08 A3002 RMK AO2 SLP166 T10391083
KISP 161156Z 24009KT 10SM SCT250 M06/M09 A2999 RMK AO2 SLP156 4/002 70013 I6000 T10611089 11056 21083 51020
KISP 161056Z 25004KT 10SM FEW250 M06/M09 A2997 RMK AO2 SLP151 T10611094
KISP 160956Z AUTO 26005KT 10SM CLR M07/M08 A2996 RMK AO2 SLP145 T10671083
KISP 160856Z AUTO 28006KT 9SM CLR M07/M09 A2993 RMK AO2 SLP137 I3000 T10721089 51015
KISP 160756Z AUTO 27005KT 8SM CLR M08/M09 A2992 RMK AO2 SLP133 I1000 T10781089
KISP 160656Z AUTO 25005KT 7SM CLR M08/M09 A2990 RMK AO2 SLP127 T10781089
KISP 160556Z AUTO 27007KT 10SM CLR M07/M08 A2989 RMK AO2 SLP121 60003 T10671083 11028 21067 50000
KISP 160456Z 27006KT 10SM CLR M06/M08 A2989 RMK AO2 SLP121 LAST T10611078 410061111
KISP 160356Z 28008KT 9SM FEW090 M04/M06 A2989 RMK AO2 SLP122 T10441061
KISP 160340Z 28008KT 9SM SCT090 M04/M06 A2989 RMK AO2 T10441061
KISP 160256Z 28005KT 2 1/2SM FEW043 BKN080 OVC100 M04/M05 A2989 RMK AO2 SFC VIS 7 SNE38 SLP121 P0000 60003 T10391050 56000
KISP 160242Z 28006KT 2 1/2SM BR FEW022 SCT043 OVC100 M04/M05 A2989 RMK AO2 SFC VIS 6 SNE38 P0000 T10391050
KISP 160156Z 28006KT 1 1/2SM -SN BR FEW004 BKN036 OVC049 M03/M04 A2989 RMK AO2 SFC VIS 2 1/2 SLP122 P0002 T10331044
KISP 160139Z 29007KT 1 1/2SM -SN BR FEW004 BKN033 OVC055 M03/M04 A2988 RMK AO2 SFC VIS 2 P0001 T10331044
KISP 160056Z 30006KT 1SM R06/P6000FT -SN BR FEW004 SCT015 OVC020 M03/M04 A2989 RMK AO2 SFC VIS 1 1/2 SLP121 P0001 T10331039
KISP 160054Z 31006KT 1SM R06/P6000FT -SN BR FEW004 BKN015 OVC020 M03/M04 A2988 RMK AO2 SFC VIS 1 1/2 P0001
KISP 152356Z 29004KT 3/4SM R06/P6000FT -SN BR FEW004 BKN011 OVC020 M03/M04 A2989 RMK AO2 SFC VIS 1 1/4 SLP122 931011 4/002 P0004 60010 T10281039 11006 21028 58002
KISP 152256Z 28004KT 3/4SM R06/P6000FT -SN BR FEW009 BKN013 OVC023 M03/M04 A2991 RMK AO2 SFC VIS 1 SLP128 P0003 T10281039
KISP 152241Z 28003KT 3/4SM R06/P6000FT -SN BR FEW009 BKN013 OVC023 M03/M04 A2991 RMK AO2 SFC VIS 1 1/4 P0003 T10281039
KISP 152156Z 00000KT 3/4SM R06/P6000FT -SN BR FEW010 BKN015 OVC030 M03/M04 A2990 RMK AO2 SFC VIS 1 1/2 SLP128 P0002 T10281039
KISP 152134Z 00000KT 1 1/2SM -SN BR FEW011 BKN016 OVC035 M03/M04 A2990 RMK AO2 SFC VIS 2 P0001 T10281039
KISP 152056Z 01007KT 3/4SM R06/6000VP6000FT -SN BR OVC011 M02/M04 A2989 RMK AO2 SFC VIS 1 SLP124 P0001 60001 T10221044 56036
KISP 151956Z 04003KT 1 1/2SM -SN FEW015 BKN022 OVC035 M01/M05 A2992 RMK AO2 SFC VIS 2 SLP133 P0000 T10111050
KISP 151945Z 00000KT 2 1/2SM -SN BKN022 OVC035 M01/M06 A2993 RMK AO2 SFC VIS 3 P0000 T10111056
KISP 151856Z 35003KT 10SM -SN BKN055 OVC070 M01/M07 A2996 RMK AO2 SNB19E36B55 SLP147 P0000 T10061067
KISP 151756Z 00000KT 10SM FEW050 BKN070 OVC130 M01/M07 A3000 RMK AO2 SLP159 4/001 T10061072 11006 21083 56039
KISP 151656Z 00000KT 10SM FEW050 BKN100 OVC180 M02/M08 A3003 RMK AO2 SLP169 T10171083
KISP 151556Z 00000KT 10SM FEW050 BKN130 OVC200 M02/M09 A3008 RMK AO2 SLP187 T10221094
KISP 151456Z 00000KT 10SM FEW050 BKN130 OVC250 M03/M11 A3011 RMK AO2 SLP198 T10331106 53003
KISP 151356Z 00000KT 10SM BKN130 OVC250 M06/M11 A3011 RMK AO2 SLP199 T10561106
KISP 151256Z 00000KT 10SM BKN130 BKN200 M07/M11 A3010 RMK AO2 SLP194 T10671111
KISP 151156Z 23003KT 10SM BKN150 BKN220 M09/M12 A3010 RMK AO2 SLP195 4/001 70004 T10891122 11067 21111 53005
KISP 151056Z 00000KT 10SM SCT250 M11/M14 A3009 RMK AO2 SLP191 T11061144
KISP 150956Z AUTO 00000KT 10SM CLR M11/M14 A3009 RMK AO2 SLP189 T11061144
KISP 150856Z AUTO 25003KT 10SM CLR M09/M14 A3009 RMK AO2 SLP190 T10941144 50005